createdAt,value
2019-05-09T00:02:58.107Z,11.24
2019-05-09T00:06:01.026Z,11.24
2019-05-09T00:09:05.490Z,11.31
2019-05-09T00:12:08.411Z,11.23
2019-05-09T00:15:13.508Z,11.34
2019-05-09T00:18:16.472Z,11.15
2019-05-09T00:21:25.103Z,11.12
2019-05-09T00:24:28.029Z,11.14
2019-05-09T00:27:33.093Z,11.25
2019-05-09T00:30:54.390Z,11.30
2019-05-09T00:34:00.806Z,11.07
2019-05-09T00:37:03.711Z,11.06
2019-05-09T00:40:06.636Z,11.08
2019-05-09T00:43:09.559Z,11.18
2019-05-09T00:46:23.647Z,11.09
2019-05-09T00:49:26.946Z,11.15
2019-05-09T00:52:29.868Z,11.11
2019-05-09T00:55:33.375Z,11.11
2019-05-09T00:58:36.442Z,11.28
2019-05-09T01:01:39.459Z,11.17
2019-05-09T01:04:43.791Z,11.01
2019-05-09T01:07:46.854Z,11.01
2019-05-09T01:10:49.759Z,11.10
2019-05-09T01:13:54.337Z,10.86
2019-05-09T01:16:57.863Z,10.92
2019-05-09T01:20:03.084Z,10.91
2019-05-09T01:23:06.000Z,10.77
2019-05-09T01:26:09.007Z,10.81
2019-05-09T01:29:13.728Z,10.71
2019-05-09T01:32:24.635Z,10.65
2019-05-09T01:35:27.550Z,10.68
2019-05-09T01:38:30.473Z,10.69
2019-05-09T01:41:34.128Z,10.64
2019-05-09T01:44:37.190Z,10.61
2019-05-09T01:47:42.976Z,10.60
2019-05-09T01:50:45.628Z,10.65
2019-05-09T01:53:53.171Z,10.51
2019-05-09T01:56:56.789Z,10.58
2019-05-09T01:59:59.728Z,10.62
2019-05-09T02:03:03.294Z,10.59
2019-05-09T02:06:06.442Z,10.58
2019-05-09T02:09:09.365Z,10.57
2019-05-09T02:12:14.182Z,10.55
2019-05-09T02:15:34.174Z,10.69
2019-05-09T02:18:56.811Z,10.63
2019-05-09T02:21:59.720Z,10.50
2019-05-09T02:25:05.049Z,10.40
2019-05-09T02:28:07.976Z,10.47
2019-05-09T02:31:11.210Z,10.55
2019-05-09T02:34:15.175Z,10.69
2019-05-09T02:37:18.819Z,10.51
2019-05-09T02:40:22.090Z,10.62
2019-05-09T02:43:24.991Z,10.52
2019-05-09T02:46:49.191Z,10.52
2019-05-09T02:49:52.358Z,10.55
2019-05-09T02:52:55.252Z,10.62
2019-05-09T02:55:58.771Z,10.55
2019-05-09T02:59:14.931Z,10.34
2019-05-09T03:02:31.145Z,10.42
2019-05-09T03:05:34.084Z,10.25
2019-05-09T03:08:38.364Z,10.53
2019-05-09T03:11:41.603Z,10.51
2019-05-09T03:14:44.531Z,10.56
2019-05-09T03:17:49.509Z,10.54
2019-05-09T03:21:10.716Z,10.46
2019-05-09T03:24:13.626Z,10.29
2019-05-09T03:27:24.642Z,10.26
2019-05-09T03:30:30.809Z,10.40
2019-05-09T03:33:35.644Z,10.34
2019-05-09T03:36:38.660Z,10.38
2019-05-09T03:39:42.724Z,10.55
2019-05-09T03:42:45.649Z,10.47
2019-05-09T03:45:55.889Z,10.48
2019-05-09T03:49:01.930Z,10.52
2019-05-09T03:52:07.454Z,10.37
2019-05-09T03:55:13.740Z,10.46
2019-05-09T03:58:19.013Z,10.46
2019-05-09T04:01:22.275Z,10.39
2019-05-09T04:04:25.175Z,10.42
2019-05-09T04:07:29.862Z,10.34
2019-05-09T04:10:32.871Z,10.40
2019-05-09T04:13:41.011Z,10.38
2019-05-09T04:16:43.978Z,10.34
2019-05-09T04:19:47.919Z,10.08
2019-05-09T04:22:51.022Z,10.09
2019-05-09T04:26:08.720Z,10.25
2019-05-09T04:29:11.978Z,10.28
2019-05-09T04:32:14.924Z,10.39
2019-05-09T04:35:17.822Z,10.28
2019-05-09T04:38:20.756Z,10.27
2019-05-09T04:41:25.268Z,10.16
2019-05-09T04:44:34.804Z,10.02
2019-05-09T04:47:39.373Z,10.09
2019-05-09T04:50:42.529Z,10.20
2019-05-09T04:53:47.841Z,10.31
2019-05-09T04:56:53.693Z,10.16
2019-05-09T04:59:57.471Z,10.12
2019-05-09T05:03:00.352Z,10.17
2019-05-09T05:06:03.256Z,10.17
2019-05-09T05:09:07.878Z,10.28
2019-05-09T05:12:10.843Z,10.12
2019-05-09T05:15:14.069Z,10.18
2019-05-09T05:18:17.367Z,10.24
2019-05-09T05:21:21.813Z,10.25
2019-05-09T05:24:48.752Z,10.21
2019-05-09T05:27:52.043Z,10.19
2019-05-09T05:30:54.984Z,10.33
2019-05-09T05:34:02.628Z,10.41
2019-05-09T05:37:07.540Z,10.28
2019-05-09T05:40:10.671Z,10.30
2019-05-09T05:43:13.582Z,10.39
2019-05-09T05:46:28.563Z,10.16
2019-05-09T05:49:31.696Z,10.26
2019-05-09T05:52:34.585Z,10.34
2019-05-09T05:55:38.078Z,10.39
2019-05-09T05:58:41.041Z,10.46
2019-05-09T06:01:43.985Z,10.51
2019-05-09T06:04:48.627Z,10.49
2019-05-09T06:07:52.022Z,10.51
2019-05-09T06:10:57.455Z,10.59
2019-05-09T06:14:08.020Z,10.77
2019-05-09T06:17:04.686Z,10.82
2019-05-09T06:20:09.608Z,10.96
2019-05-09T06:23:13.611Z,10.98
2019-05-09T06:26:18.544Z,10.97
2019-05-09T06:30:32.232Z,10.97
2019-05-09T06:34:51.130Z,11.06
2019-05-09T06:37:54.040Z,11.12
2019-05-09T06:40:58.116Z,11.19
2019-05-09T06:44:16.881Z,11.25
2019-05-09T06:47:20.291Z,11.16
2019-05-09T06:50:23.211Z,11.20
2019-05-09T06:53:27.227Z,11.27
2019-05-09T06:56:30.540Z,11.00
2019-05-09T06:59:33.439Z,11.15
2019-05-09T07:02:42.197Z,11.06
2019-05-09T07:06:03.655Z,11.19
2019-05-09T07:09:27.845Z,11.44
2019-05-09T07:12:30.370Z,11.60
2019-05-09T07:15:33.268Z,11.52
2019-05-09T07:18:38.156Z,11.68
2019-05-09T07:22:00.396Z,11.80
2019-05-09T07:25:30.566Z,11.76
2019-05-09T07:28:33.486Z,11.55
2019-05-09T07:31:42.279Z,11.53
2019-05-09T07:34:48.656Z,11.51
2019-05-09T07:37:51.582Z,11.75
2019-05-09T07:40:54.618Z,11.92
2019-05-09T07:43:58.290Z,12.07
2019-05-09T07:47:03.507Z,12.07
2019-05-09T07:50:08.558Z,12.20
2019-05-09T07:53:11.766Z,12.28
2019-05-09T07:56:14.669Z,12.47
2019-05-09T07:59:18.168Z,12.59
2019-05-09T08:02:21.641Z,12.36
2019-05-09T08:05:28.070Z,12.21
2019-05-09T08:08:31.071Z,12.37
2019-05-09T08:11:33.981Z,12.36
2019-05-09T08:14:37.700Z,12.48
2019-05-09T08:18:31.501Z,12.56
2019-05-09T08:21:34.435Z,12.95
2019-05-09T08:24:38.817Z,12.54
2019-05-09T08:27:41.721Z,13.04
2019-05-09T08:30:44.648Z,12.55
2019-05-09T08:33:48.480Z,12.83
2019-05-09T08:36:51.699Z,12.96
2019-05-09T08:39:54.665Z,12.78
2019-05-09T08:42:58.876Z,12.76
2019-05-09T08:46:02.061Z,12.65
2019-05-09T08:49:04.995Z,12.89
2019-05-09T08:52:16.229Z,13.10
2019-05-09T08:55:17.453Z,12.90
2019-05-09T08:58:20.467Z,13.39
2019-05-09T09:01:43.047Z,12.99
2019-05-09T09:04:29.483Z,12.78
2019-05-09T09:07:32.787Z,12.74
2019-05-09T09:10:38.070Z,12.60
2019-05-09T09:13:40.618Z,12.59
2019-05-09T09:16:44.741Z,13.09
2019-05-09T09:19:48.013Z,12.93
2019-05-09T09:22:51.093Z,13.26
2019-05-09T09:25:54.037Z,13.88
2019-05-09T09:28:57.766Z,13.54
2019-05-09T09:32:00.957Z,13.69
2019-05-09T09:35:04.087Z,13.19
2019-05-09T09:38:09.105Z,13.63
2019-05-09T09:41:11.854Z,13.67
2019-05-09T09:44:15.106Z,13.90
2019-05-09T09:47:23.037Z,14.40
2019-05-09T09:50:23.121Z,14.39
2019-05-09T09:53:27.872Z,14.07
2019-05-09T09:56:31.789Z,14.69
2019-05-09T09:59:54.295Z,14.76
2019-05-09T10:02:58.662Z,14.57
2019-05-09T10:06:02.843Z,14.55
2019-05-09T10:09:09.410Z,14.14
2019-05-09T10:12:12.547Z,14.45
2019-05-09T10:15:30.714Z,14.29
2019-05-09T10:18:42.103Z,14.12
2019-05-09T10:21:48.753Z,14.59
2019-05-09T10:24:51.695Z,14.45
2019-05-09T10:27:54.627Z,14.36
2019-05-09T10:30:58.333Z,14.90
2019-05-09T10:34:01.269Z,15.71
2019-05-09T10:37:04.186Z,16.00
2019-05-09T10:40:07.219Z,14.67
2019-05-09T10:43:34.623Z,14.12
2019-05-09T10:46:53.696Z,14.12
2019-05-09T10:49:53.199Z,14.23
2019-05-09T10:52:58.395Z,14.80
2019-05-09T10:56:01.313Z,15.43
2019-05-09T10:59:04.260Z,15.44
2019-05-09T11:02:09.436Z,14.85
2019-05-09T11:05:12.223Z,15.51
2019-05-09T11:08:15.154Z,15.15
2019-05-09T11:11:18.606Z,14.84
2019-05-09T11:14:36.087Z,14.78
2019-05-09T11:17:28.618Z,14.68
2019-05-09T11:20:31.367Z,14.90
2019-05-09T11:23:35.424Z,14.79
2019-05-09T11:26:39.914Z,14.48
2019-05-09T11:29:46.401Z,14.59
2019-05-09T11:32:48.709Z,14.79
2019-05-09T11:35:51.636Z,15.78
2019-05-09T11:38:54.616Z,16.34
2019-05-09T11:41:58.519Z,15.07
2019-05-09T11:45:02.148Z,14.72
2019-05-09T11:48:07.966Z,14.63
2019-05-09T11:51:10.198Z,14.48
2019-05-09T11:54:16.400Z,14.63
2019-05-09T11:57:19.132Z,14.48
2019-05-09T12:00:22.500Z,14.42
2019-05-09T12:03:25.419Z,14.30
2019-05-09T12:06:29.189Z,14.34
2019-05-09T12:09:32.256Z,14.18
2019-05-09T12:12:35.514Z,14.26
2019-05-09T12:15:39.043Z,14.14
2019-05-09T12:18:42.147Z,14.38
2019-05-09T12:21:48.058Z,14.58
2019-05-09T12:24:53.420Z,14.53
2019-05-09T12:27:54.703Z,14.96
2019-05-09T12:30:57.612Z,15.71
2019-05-09T12:34:00.994Z,15.18
2019-05-09T12:37:03.887Z,15.06
2019-05-09T12:40:08.375Z,15.06
2019-05-09T12:43:11.485Z,14.99
2019-05-09T12:46:14.732Z,14.85
2019-05-09T12:49:18.902Z,14.75
2019-05-09T12:52:22.164Z,14.78
2019-05-09T12:55:27.597Z,15.00
2019-05-09T12:58:30.595Z,15.05
2019-05-09T13:01:34.117Z,14.74
2019-05-09T13:04:38.182Z,14.76
2019-05-09T13:07:42.488Z,14.84
2019-05-09T13:10:45.568Z,14.75
2019-05-09T13:13:48.512Z,14.80
2019-05-09T13:17:11.027Z,14.81
2019-05-09T13:20:17.866Z,14.43
2019-05-09T13:23:20.466Z,14.56
2019-05-09T13:26:23.387Z,14.50
2019-05-09T13:29:26.290Z,14.54
2019-05-09T13:32:29.212Z,14.79
2019-05-09T13:35:32.120Z,14.85
2019-05-09T13:38:37.687Z,14.86
2019-05-09T13:41:40.457Z,14.91
2019-05-09T13:44:43.540Z,14.78
2019-05-09T13:47:48.511Z,14.90
2019-05-09T13:50:51.296Z,14.78
2019-05-09T13:53:54.234Z,14.68
2019-05-09T13:57:00.922Z,14.94
2019-05-09T14:00:01.961Z,15.06
2019-05-09T14:03:08.157Z,14.87
2019-05-09T14:06:10.783Z,15.07
2019-05-09T14:09:13.754Z,15.38
2019-05-09T14:12:17.682Z,15.25
2019-05-09T14:15:20.730Z,15.31
2019-05-09T14:18:23.652Z,15.34
2019-05-09T14:21:29.549Z,15.38
2019-05-09T14:24:31.410Z,15.40
2019-05-09T14:27:34.305Z,15.21
2019-05-09T14:30:39.027Z,15.40
2019-05-09T14:33:42.534Z,15.13
2019-05-09T14:36:46.345Z,14.94
2019-05-09T14:39:58.490Z,14.96
2019-05-09T14:42:57.650Z,14.91
2019-05-09T14:45:59.908Z,14.89
2019-05-09T14:49:03.102Z,14.93
2019-05-09T14:52:08.139Z,14.96
2019-05-09T14:55:10.925Z,15.06
2019-05-09T14:58:13.848Z,15.09
2019-05-09T15:01:19.421Z,15.14
2019-05-09T15:04:21.580Z,15.21
2019-05-09T15:07:24.493Z,15.21
2019-05-09T15:10:27.460Z,15.33
2019-05-09T15:13:30.417Z,15.51
2019-05-09T15:16:33.361Z,16.61
2019-05-09T15:19:38.573Z,16.66
2019-05-09T15:22:41.120Z,16.17
2019-05-09T15:25:44.097Z,15.87
2019-05-09T15:28:48.379Z,15.69
2019-05-09T15:31:54.428Z,15.47
2019-05-09T15:34:57.701Z,15.54
2019-05-09T15:38:00.812Z,15.47
2019-05-09T15:41:03.847Z,15.43
2019-05-09T15:44:08.333Z,15.24
2019-05-09T15:47:19.444Z,15.27
2019-05-09T15:50:23.465Z,15.18
2019-05-09T15:53:27.799Z,15.28
2019-05-09T15:56:31.990Z,15.26
2019-05-09T15:59:34.888Z,15.50
2019-05-09T16:02:39.043Z,15.44
2019-05-09T16:05:42.327Z,15.32
2019-05-09T16:08:45.285Z,15.53
2019-05-09T16:11:48.531Z,15.37
2019-05-09T16:14:51.516Z,15.24
2019-05-09T16:17:54.447Z,15.27
2019-05-09T16:20:58.445Z,15.28
2019-05-09T16:24:01.473Z,15.51
2019-05-09T16:27:04.518Z,15.71
2019-05-09T16:30:08.599Z,15.78
2019-05-09T16:33:11.682Z,15.88
2019-05-09T16:36:14.694Z,16.09
2019-05-09T16:39:18.053Z,16.02
2019-05-09T16:42:21.163Z,16.03
2019-05-09T16:45:24.283Z,16.00
2019-05-09T16:48:27.735Z,15.89
2019-05-09T16:51:31.084Z,15.74
2019-05-09T16:54:38.786Z,15.83
2019-05-09T16:57:41.871Z,15.90
2019-05-09T17:00:49.140Z,15.68
2019-05-09T17:03:52.411Z,15.82
2019-05-09T17:06:57.549Z,16.12
2019-05-09T17:10:00.193Z,15.76
2019-05-09T17:13:03.115Z,15.66
2019-05-09T17:16:07.526Z,15.57
2019-05-09T17:19:10.550Z,15.49
2019-05-09T17:22:42.109Z,16.38
2019-05-09T17:25:47.797Z,17.27
2019-05-09T17:28:49.960Z,15.76
2019-05-09T17:31:52.990Z,15.48
2019-05-09T17:34:58.160Z,15.37
2019-05-09T17:38:00.701Z,15.30
2019-05-09T17:41:04.292Z,15.25
2019-05-09T17:44:07.790Z,15.21
2019-05-09T17:47:11.836Z,15.21
2019-05-09T17:50:14.969Z,15.22
2019-05-09T17:53:18.424Z,15.25
2019-05-09T17:56:21.435Z,15.13
2019-05-09T17:59:24.355Z,15.11
2019-05-09T18:02:28.147Z,15.06
2019-05-09T18:05:31.279Z,14.99
2019-05-09T18:08:34.241Z,14.91
2019-05-09T18:11:37.724Z,14.99
2019-05-09T18:14:41.391Z,15.08
2019-05-09T18:17:44.303Z,14.85
2019-05-09T18:20:47.242Z,14.77
2019-05-09T18:23:50.136Z,14.74
2019-05-09T18:26:53.051Z,14.59
2019-05-09T18:29:58.105Z,14.51
2019-05-09T18:33:15.547Z,14.51
2019-05-09T18:36:18.475Z,14.49
2019-05-09T18:39:22.099Z,14.48
2019-05-09T18:42:27.255Z,14.41
2019-05-09T18:45:29.849Z,14.39
2019-05-09T18:48:33.156Z,14.55
2019-05-09T18:51:36.080Z,14.59
2019-05-09T18:54:39.006Z,14.50
2019-05-09T18:57:41.905Z,14.58
2019-05-09T19:00:44.946Z,14.65
2019-05-09T19:03:47.871Z,14.48
2019-05-09T19:06:50.907Z,14.58
2019-05-09T19:09:53.854Z,14.58
2019-05-09T19:12:56.781Z,14.53
2019-05-09T19:16:07.305Z,14.53
2019-05-09T19:19:26.797Z,14.59
2019-05-09T19:22:30.044Z,14.75
2019-05-09T19:25:33.530Z,14.71
2019-05-09T19:28:36.547Z,14.68
2019-05-09T19:31:40.033Z,14.61
2019-05-09T19:34:42.940Z,14.60
2019-05-09T19:37:46.497Z,14.66
2019-05-09T19:40:49.447Z,14.66
2019-05-09T19:43:52.348Z,14.64
2019-05-09T19:46:55.273Z,14.46
2019-05-09T19:49:58.179Z,14.16
2019-05-09T19:53:01.101Z,13.87
2019-05-09T19:56:04.103Z,13.82
2019-05-09T19:59:08.251Z,13.76
2019-05-09T20:02:11.933Z,13.58
2019-05-09T20:05:14.937Z,13.50
2019-05-09T20:08:17.862Z,13.33
2019-05-09T20:11:33.133Z,13.46
2019-05-09T20:14:41.210Z,13.23
2019-05-09T20:17:44.121Z,13.55
2019-05-09T20:20:47.025Z,13.52
2019-05-09T20:23:49.975Z,13.27
2019-05-09T20:26:52.848Z,13.15
2019-05-09T20:29:55.795Z,13.26
2019-05-09T20:32:58.714Z,13.34
2019-05-09T20:36:01.947Z,13.19
2019-05-09T20:39:06.137Z,13.16
2019-05-09T20:42:09.033Z,13.38
2019-05-09T20:45:12.569Z,13.50
2019-05-09T20:48:15.493Z,13.56
2019-05-09T20:51:18.399Z,13.45
2019-05-09T20:54:21.742Z,13.55
2019-05-09T20:57:25.090Z,13.35
2019-05-09T21:00:28.115Z,13.18
2019-05-09T21:03:31.129Z,13.27
2019-05-09T21:06:34.041Z,13.35
2019-05-09T21:09:37.441Z,12.76
2019-05-09T21:12:40.369Z,13.13
2019-05-09T21:15:43.287Z,13.21
2019-05-09T21:18:46.295Z,12.91
2019-05-09T21:21:49.223Z,12.75
2019-05-09T21:24:52.457Z,12.79
2019-05-09T21:27:55.360Z,12.85
2019-05-09T21:30:58.582Z,13.05
2019-05-09T21:34:01.488Z,13.15
2019-05-09T21:37:05.508Z,13.13
2019-05-09T21:40:09.225Z,12.99
2019-05-09T21:43:12.248Z,12.60
2019-05-09T21:46:15.179Z,12.63
2019-05-09T21:49:18.068Z,12.84
2019-05-09T21:52:21.007Z,12.93
2019-05-09T21:55:23.933Z,12.90
2019-05-09T21:58:26.840Z,12.81
2019-05-09T22:01:29.866Z,12.83
2019-05-09T22:04:33.471Z,12.63
2019-05-09T22:07:36.400Z,12.81
2019-05-09T22:10:39.688Z,12.84
2019-05-09T22:13:42.613Z,12.87
2019-05-09T22:16:47.489Z,12.82
2019-05-09T22:19:50.388Z,12.68
2019-05-09T22:22:53.406Z,12.87
2019-05-09T22:25:56.331Z,12.73
2019-05-09T22:28:59.871Z,12.80
2019-05-09T22:32:02.910Z,12.63
2019-05-09T22:35:06.323Z,12.62
2019-05-09T22:38:09.241Z,12.74
2019-05-09T22:41:12.163Z,12.70
2019-05-09T22:44:15.162Z,12.69
2019-05-09T22:47:18.096Z,12.73
2019-05-09T22:50:21.002Z,12.70
2019-05-09T22:53:24.007Z,12.81
2019-05-09T22:56:26.941Z,12.83
2019-05-09T22:59:29.870Z,12.26
2019-05-09T23:02:32.780Z,12.47
2019-05-09T23:05:35.686Z,12.82
2019-05-09T23:08:38.613Z,12.92
2019-05-09T23:11:41.810Z,12.59
2019-05-09T23:14:44.753Z,12.88
2019-05-09T23:17:47.771Z,12.87
2019-05-09T23:20:54.272Z,12.95
2019-05-09T23:24:00.875Z,12.85
2019-05-09T23:27:03.789Z,12.54
2019-05-09T23:30:08.232Z,12.71
2019-05-09T23:33:11.161Z,12.83
2019-05-09T23:36:14.075Z,12.73
2019-05-09T23:39:23.420Z,12.55
2019-05-09T23:42:26.318Z,12.77
2019-05-09T23:45:29.257Z,12.78
2019-05-09T23:48:32.487Z,12.63
2019-05-09T23:51:45.330Z,12.54
2019-05-09T23:55:06.337Z,12.64
2019-05-09T23:58:27.776Z,12.36
